Time;durP1;ratioP1;P1;durP2;ratioP2;P2;SDS_P1;SDS_P2;PMS_P1;PMS_P2;Temp;Humidity;BMP_temperature;BMP_pressure;BME280_temperature;BME280_humidity;BME280_pressure;Samples;Min_cycle;Max_cycle;Signal;HPM_P1;HPM_P2
2023/12/16 00:00:59;;;;;;;;;;;;;;;-0.41;71.12;102993.46;106506;1270;97853;-64
2023/12/16 00:03:36;;;;;;;;;;;;;;;-0.41;71.32;102996.64;106503;1270;112063;-65
2023/12/16 00:06:04;;;;;;;;;;;;;;;-0.41;71.21;102997.52;106512;1273;108662;-64
2023/12/16 00:08:33;;;;;;;;;;;;;;;-0.41;71.32;102998.05;106459;1270;108654;-64
2023/12/16 00:11:02;;;;;;;;;;;;;;;-0.42;71.30;103000.53;106497;1269;97857;-64
2023/12/16 00:13:30;;;;;;;;;;;;;;;-0.42;71.35;103002.64;106478;1269;97871;-64
2023/12/16 00:15:59;;;;;;;;;;;;;;;-0.41;71.39;103007.93;106482;1270;111507;-65
2023/12/16 00:18:28;;;;;;;;;;;;;;;-0.41;71.63;103007.75;106467;1270;108662;-66
2023/12/16 00:20:56;;;;;;;;;;;;;;;-0.40;71.60;103008.61;106516;1270;108772;-64
2023/12/16 00:23:24;;;;;;;;;;;;;;;-0.38;71.63;103009.66;106524;1269;97852;-65
2023/12/16 00:25:52;;;;;;;;;;;;;;;-0.37;71.69;103017.59;106510;1269;97776;-64
2023/12/16 00:28:20;;;;;;;;;;;;;;;-0.35;71.81;103018.45;106437;1270;111627;-66
2023/12/16 00:30:49;;;;;;;;;;;;;;;-0.33;71.94;103018.98;106509;1270;108425;-65
2023/12/16 00:33:17;;;;;;;;;;;;;;;-0.31;71.85;103020.56;106407;1269;107612;-64
2023/12/16 00:35:45;;;;;;;;;;;;;;;-0.29;71.92;103022.83;106409;1268;97878;-63
2023/12/16 00:38:14;;;;;;;;;;;;;;;-0.28;71.94;103023.89;106447;1270;97768;-65
2023/12/16 00:40:42;;;;;;;;;;;;;;;-0.28;72.07;103028.11;106502;1269;111907;-65
2023/12/16 00:43:11;;;;;;;;;;;;;;;-0.26;72.21;103029.34;106497;1270;108831;-64
2023/12/16 00:45:39;;;;;;;;;;;;;;;-0.25;72.32;103036.55;106435;1268;107162;-64
2023/12/16 00:48:07;;;;;;;;;;;;;;;-0.23;72.28;103043.77;106483;1270;97919;-64
2023/12/16 00:50:38;;;;;;;;;;;;;;;-0.20;72.48;103034.95;106520;1269;97898;-65
2023/12/16 00:53:06;;;;;;;;;;;;;;;-0.18;72.52;103030.34;106462;1268;111309;-64
2023/12/16 00:55:35;;;;;;;;;;;;;;;-0.12;72.67;103034.36;106503;1268;107847;-64
2023/12/16 00:58:03;;;;;;;;;;;;;;;-0.09;72.89;103032.39;106497;1270;108625;-65
2023/12/16 01:00:31;;;;;;;;;;;;;;;-0.05;73.03;103034.30;106517;1273;97881;-67
2023/12/16 01:02:59;;;;;;;;;;;;;;;-0.01;73.16;103035.85;106467;1271;97759;-65
2023/12/16 01:05:28;;;;;;;;;;;;;;;0.03;73.31;103031.08;106468;1272;110612;-64
2023/12/16 01:07:57;;;;;;;;;;;;;;;0.07;73.38;103030.67;106470;1270;108364;-64
2023/12/16 01:10:25;;;;;;;;;;;;;;;0.11;73.57;103033.10;106437;1268;107478;-64
2023/12/16 01:12:53;;;;;;;;;;;;;;;0.16;73.58;103035.90;106486;1268;97872;-66
2023/12/16 01:15:21;;;;;;;;;;;;;;;0.21;73.56;103043.63;106454;1272;97967;-64
2023/12/16 01:17:50;;;;;;;;;;;;;;;0.27;73.98;103045.51;106464;1268;111915;-64
2023/12/16 01:20:18;;;;;;;;;;;;;;;0.32;73.94;103049.36;106479;1270;108283;-65
2023/12/16 01:22:46;;;;;;;;;;;;;;;0.34;73.85;103047.22;106471;1270;107810;-64
2023/12/16 01:25:14;;;;;;;;;;;;;;;0.35;73.82;103042.09;106480;1270;97952;-63
2023/12/16 01:27:42;;;;;;;;;;;;;;;0.36;73.97;103040.84;106509;1268;97852;-63
2023/12/16 01:30:11;;;;;;;;;;;;;;;0.38;74.04;103041.88;106520;1268;111949;-64
2023/12/16 01:32:39;;;;;;;;;;;;;;;0.39;73.95;103039.23;106431;1268;107804;-64
2023/12/16 01:35:07;;;;;;;;;;;;;;;0.38;73.82;103036.93;106442;1268;107640;-65
2023/12/16 01:37:35;;;;;;;;;;;;;;;0.35;73.69;103040.15;106406;1272;97994;-67
2023/12/16 01:40:05;;;;;;;;;;;;;;;0.30;73.76;103039.13;106482;1270;97770;-63
2023/12/16 01:42:33;;;;;;;;;;;;;;;0.26;73.74;103032.99;106482;1268;111726;-64
2023/12/16 01:45:01;;;;;;;;;;;;;;;0.23;73.83;103031.25;106461;1268;107490;-63
2023/12/16 01:47:30;;;;;;;;;;;;;;;0.21;73.90;103027.74;106472;1270;107307;-65
2023/12/16 01:49:59;;;;;;;;;;;;;;;0.21;73.97;103031.45;106494;1268;97868;-65
2023/12/16 01:52:27;;;;;;;;;;;;;;;0.17;73.93;103029.02;106500;1268;97864;-65
2023/12/16 01:54:56;;;;;;;;;;;;;;;0.12;73.92;103018.64;106521;1268;112196;-64
2023/12/16 01:57:24;;;;;;;;;;;;;;;0.09;73.88;103019.89;106553;1268;106892;-63
2023/12/16 01:59:52;;;;;;;;;;;;;;;0.02;73.66;103020.66;106451;1268;108322;-63
2023/12/16 02:02:22;;;;;;;;;;;;;;;-0.05;73.48;103020.02;106515;1270;97846;-66
2023/12/16 02:04:50;;;;;;;;;;;;;;;-0.13;73.37;103024.47;106488;1268;97847;-66
2023/12/16 02:07:18;;;;;;;;;;;;;;;-0.23;73.32;103024.02;106600;1268;111875;-68
2023/12/16 02:09:48;;;;;;;;;;;;;;;-0.35;73.18;103021.27;106483;1270;107445;-67
2023/12/16 02:12:16;;;;;;;;;;;;;;;-0.46;73.05;103027.88;106455;1270;109102;-65
2023/12/16 02:14:44;;;;;;;;;;;;;;;-0.56;73.30;103027.77;106444;1268;97968;-64
2023/12/16 02:17:12;;;;;;;;;;;;;;;-0.63;73.43;103026.73;106477;1268;97915;-66
2023/12/16 02:19:43;;;;;;;;;;;;;;;-0.70;73.53;103032.94;106495;1268;111347;-65
2023/12/16 02:22:11;;;;;;;;;;;;;;;-0.78;73.62;103040.19;106494;1268;108484;-66
2023/12/16 02:24:41;;;;;;;;;;;;;;;-0.84;73.67;103045.52;106499;1268;109022;-64
2023/12/16 02:27:10;;;;;;;;;;;;;;;-0.90;73.84;103039.72;106475;1268;97858;-64
2023/12/16 02:29:38;;;;;;;;;;;;;;;-0.95;73.81;103041.67;106512;1270;97853;-63
2023/12/16 02:32:07;;;;;;;;;;;;;;;-1.01;73.97;103043.63;106438;1268;111747;-64
2023/12/16 02:34:35;;;;;;;;;;;;;;;-1.06;74.18;103046.12;106471;1269;107592;-63
2023/12/16 02:37:06;;;;;;;;;;;;;;;-1.13;74.25;103047.38;106482;1268;108664;-66
2023/12/16 02:39:34;;;;;;;;;;;;;;;-1.18;74.13;103049.33;106427;1268;97895;-67
2023/12/16 02:42:03;;;;;;;;;;;;;;;-1.24;74.24;103059.39;106500;1268;97770;-67
2023/12/16 02:44:30;;;;;;;;;;;;;;;-1.30;74.03;103067.48;106580;1269;112558;-66
2023/12/16 02:46:59;;;;;;;;;;;;;;;-1.36;74.02;103074.36;106507;1268;108233;-66
2023/12/16 02:49:28;;;;;;;;;;;;;;;-1.41;74.12;103074.72;106488;1268;107969;-64
2023/12/16 02:51:58;;;;;;;;;;;;;;;-1.46;74.24;103073.67;106489;1268;97853;-65
2023/12/16 02:54:27;;;;;;;;;;;;;;;-1.52;74.73;103072.27;106547;1268;97877;-65
2023/12/16 02:56:55;;;;;;;;;;;;;;;-1.58;75.12;103073.69;106381;1268;110904;-66
2023/12/16 02:59:23;;;;;;;;;;;;;;;-1.59;75.23;103083.02;106466;1268;108593;-64
2023/12/16 03:01:51;;;;;;;;;;;;;;;-1.59;75.16;103081.42;106505;1269;107071;-64
2023/12/16 03:04:19;;;;;;;;;;;;;;;-1.60;75.22;103084.95;106394;1273;97946;-66
2023/12/16 03:06:48;;;;;;;;;;;;;;;-1.59;75.39;103089.17;106505;1268;97791;-64
2023/12/16 03:09:16;;;;;;;;;;;;;;;-1.59;75.43;103094.10;106563;1270;111459;-64
2023/12/16 03:11:44;;;;;;;;;;;;;;;-1.58;75.57;103085.66;106501;1269;108007;-66
2023/12/16 03:14:12;;;;;;;;;;;;;;;-1.59;75.98;103084.95;106392;1268;106974;-67
2023/12/16 03:16:41;;;;;;;;;;;;;;;-1.64;77.04;103089.52;106387;1270;97962;-66
2023/12/16 03:19:09;;;;;;;;;;;;;;;-1.64;76.91;103084.07;106533;1270;97855;-66
2023/12/16 03:21:37;;;;;;;;;;;;;;;-1.59;76.95;103080.02;106447;1269;112194;-66
2023/12/16 03:24:05;;;;;;;;;;;;;;;-1.54;76.74;103085.29;106466;1268;107448;-66
2023/12/16 03:26:34;;;;;;;;;;;;;;;-1.47;76.79;103088.64;106496;1268;108410;-67
2023/12/16 03:29:02;;;;;;;;;;;;;;;-1.42;76.75;103085.64;106442;1268;97986;-66
2023/12/16 03:31:30;;;;;;;;;;;;;;;-1.37;76.85;103086.16;106460;1270;97752;-65
2023/12/16 03:33:58;;;;;;;;;;;;;;;-1.34;76.88;103079.81;106540;1268;111825;-66
2023/12/16 03:36:27;;;;;;;;;;;;;;;-1.36;76.60;103073.48;106581;1267;107067;-65
2023/12/16 03:38:56;;;;;;;;;;;;;;;-1.37;76.76;103074.54;106392;1273;108510;-66
2023/12/16 03:41:25;;;;;;;;;;;;;;;-1.36;76.93;103078.23;106460;1268;97858;-67
2023/12/16 03:43:53;;;;;;;;;;;;;;;-1.32;77.41;103086.15;106472;1269;97878;-67
2023/12/16 03:46:21;;;;;;;;;;;;;;;-1.29;77.46;103094.60;106438;1268;111418;-67
2023/12/16 03:48:50;;;;;;;;;;;;;;;-1.26;77.41;103102.70;106470;1268;107684;-67
2023/12/16 03:51:21;;;;;;;;;;;;;;;-1.24;77.41;103105.86;106420;1268;107718;-67
2023/12/16 03:53:49;;;;;;;;;;;;;;;-1.19;77.63;103111.30;106438;1268;97846;-65
2023/12/16 03:56:17;;;;;;;;;;;;;;;-1.18;77.46;103107.79;106454;1268;97842;-66
2023/12/16 03:58:45;;;;;;;;;;;;;;;-1.15;77.56;103110.42;106461;1268;111203;-71
2023/12/16 04:01:13;;;;;;;;;;;;;;;-1.11;77.51;103112.34;106508;1268;108358;-66
2023/12/16 04:03:42;;;;;;;;;;;;;;;-1.07;77.42;103114.80;106469;1268;108629;-66
2023/12/16 04:06:14;;;;;;;;;;;;;;;-1.07;77.43;103118.49;106408;1268;97848;-66
2023/12/16 04:08:42;;;;;;;;;;;;;;;-1.06;77.32;103124.33;106408;1273;97797;-64
2023/12/16 04:11:11;;;;;;;;;;;;;;;-1.06;77.08;103124.67;106430;1270;111929;-67
2023/12/16 04:13:39;;;;;;;;;;;;;;;-1.05;76.98;103122.02;106483;1268;108017;-67
2023/12/16 04:16:07;;;;;;;;;;;;;;;-1.03;77.01;103125.02;106457;1268;108424;-66
2023/12/16 04:18:36;;;;;;;;;;;;;;;-1.03;77.10;103119.55;106474;1268;97838;-66
2023/12/16 04:21:04;;;;;;;;;;;;;;;-1.01;77.29;103128.00;106474;1270;97773;-66
2023/12/16 04:23:32;;;;;;;;;;;;;;;-0.99;77.32;103124.84;106473;1268;110622;-67
2023/12/16 04:26:01;;;;;;;;;;;;;;;-0.98;77.27;103126.94;106494;1268;108527;-67
2023/12/16 04:28:31;;;;;;;;;;;;;;;-0.98;77.16;103131.70;106508;1268;108436;-64
2023/12/16 04:31:00;;;;;;;;;;;;;;;-0.99;77.05;103139.11;106439;1268;97880;-63
2023/12/16 04:33:28;;;;;;;;;;;;;;;-1.00;76.99;103135.77;106416;1268;97789;-64
2023/12/16 04:35:57;;;;;;;;;;;;;;;-0.96;77.26;103137.33;106396;1268;111939;-64
2023/12/16 04:38:25;;;;;;;;;;;;;;;-0.93;77.42;103140.85;106470;1268;108191;-65
2023/12/16 04:40:53;;;;;;;;;;;;;;;-0.89;77.32;103143.13;106496;1268;108046;-67
2023/12/16 04:43:22;;;;;;;;;;;;;;;-0.84;77.43;103145.95;106489;1268;98634;-65
2023/12/16 04:45:50;;;;;;;;;;;;;;;-0.79;77.23;103139.59;106492;1268;97757;-64
2023/12/16 04:48:18;;;;;;;;;;;;;;;-0.75;77.21;103137.80;106471;1268;111801;-63
2023/12/16 04:50:47;;;;;;;;;;;;;;;-0.74;77.02;103136.57;106527;1268;107489;-65
2023/12/16 04:53:15;;;;;;;;;;;;;;;-0.76;76.80;103137.98;106521;1268;108194;-64
2023/12/16 04:55:43;;;;;;;;;;;;;;;-0.78;76.86;103140.99;106514;1271;98132;-69
2023/12/16 04:58:11;;;;;;;;;;;;;;;-0.79;76.77;103136.95;106452;1270;97865;-66
2023/12/16 05:00:39;;;;;;;;;;;;;;;-0.80;76.74;103132.34;106532;1268;111865;-66
2023/12/16 05:03:07;;;;;;;;;;;;;;;-0.82;76.54;103130.95;106539;1268;107105;-65
2023/12/16 05:05:35;;;;;;;;;;;;;;;-0.88;76.50;103128.16;106482;1268;107174;-65
2023/12/16 05:08:03;;;;;;;;;;;;;;;-0.94;76.47;103131.34;106486;1268;97856;-65
2023/12/16 05:10:31;;;;;;;;;;;;;;;-0.98;76.48;103132.58;106485;1268;97853;-65
2023/12/16 05:13:00;;;;;;;;;;;;;;;-0.99;76.35;103131.54;106455;1271;111903;-66
2023/12/16 05:15:28;;;;;;;;;;;;;;;-1.00;76.59;103130.64;106449;1268;107294;-66
2023/12/16 05:17:56;;;;;;;;;;;;;;;-1.01;76.66;103129.77;106519;1268;107763;-66
2023/12/16 05:20:24;;;;;;;;;;;;;;;-1.01;76.83;103129.24;106525;1268;97847;-66
2023/12/16 05:22:52;;;;;;;;;;;;;;;-0.99;76.94;103133.28;106509;1271;97838;-67
2023/12/16 05:25:20;;;;;;;;;;;;;;;-0.95;76.86;103137.15;106428;1268;111537;-67
2023/12/16 05:27:48;;;;;;;;;;;;;;;-0.90;76.94;103142.08;106492;1268;109149;-67
2023/12/16 05:30:17;;;;;;;;;;;;;;;-0.83;77.02;103139.07;106458;1268;107771;-66
2023/12/16 05:32:45;;;;;;;;;;;;;;;-0.78;77.20;103134.64;106487;1268;97761;-66
2023/12/16 05:35:13;;;;;;;;;;;;;;;-0.71;77.26;103130.22;106525;1268;97754;-68
2023/12/16 05:37:42;;;;;;;;;;;;;;;-0.65;77.38;103131.80;106512;1268;112521;-64
2023/12/16 05:40:10;;;;;;;;;;;;;;;-0.59;77.35;103126.66;106472;1272;109556;-63
2023/12/16 05:42:40;;;;;;;;;;;;;;;-0.55;77.21;103125.04;106530;1268;107697;-65
2023/12/16 05:45:08;;;;;;;;;;;;;;;-0.51;77.25;103128.57;106437;1268;97776;-64
2023/12/16 05:47:36;;;;;;;;;;;;;;;-0.49;77.04;103127.49;106404;1268;98017;-66
2023/12/16 05:50:08;;;;;;;;;;;;;;;-0.44;77.10;103120.60;106407;1268;112137;-65
2023/12/16 05:52:39;;;;;;;;;;;;;;;-0.39;77.06;103121.63;106510;1269;108639;-68
2023/12/16 05:55:07;;;;;;;;;;;;;;;-0.37;77.12;103121.80;106475;1273;107564;-67
2023/12/16 05:57:35;;;;;;;;;;;;;;;-0.32;77.21;103120.02;106499;1268;97850;-67
2023/12/16 06:00:05;;;;;;;;;;;;;;;-0.33;76.90;103108.56;106484;1268;97942;-67
2023/12/16 06:02:33;;;;;;;;;;;;;;;-0.27;77.20;103102.52;106365;1272;110457;-66
2023/12/16 06:05:01;;;;;;;;;;;;;;;-0.19;77.25;103099.48;106458;1268;108152;-66
2023/12/16 06:07:30;;;;;;;;;;;;;;;-0.14;77.26;103097.17;106484;1268;107632;-67
2023/12/16 06:09:58;;;;;;;;;;;;;;;-0.15;76.92;103095.59;106433;1268;98567;-66
2023/12/16 06:12:27;;;;;;;;;;;;;;;-0.16;76.90;103097.87;106518;1267;97875;-65
2023/12/16 06:14:55;;;;;;;;;;;;;;;-0.14;76.83;103098.40;106511;1268;111325;-64
2023/12/16 06:17:23;;;;;;;;;;;;;;;-0.13;76.66;103099.08;106495;1268;108514;-65
2023/12/16 06:19:51;;;;;;;;;;;;;;;-0.11;76.76;103102.96;106446;1268;108362;-65
2023/12/16 06:22:19;;;;;;;;;;;;;;;-0.13;76.14;103102.08;106485;1268;97869;-64
2023/12/16 06:24:47;;;;;;;;;;;;;;;-0.17;75.90;103104.77;106479;1268;97858;-64
2023/12/16 06:27:15;;;;;;;;;;;;;;;-0.21;75.92;103108.31;106498;1268;111231;-66
2023/12/16 06:29:44;;;;;;;;;;;;;;;-0.26;75.61;103107.46;106476;1268;107857;-67
2023/12/16 06:32:12;;;;;;;;;;;;;;;-0.31;75.65;103108.20;106514;1268;108618;-67
2023/12/16 06:34:40;;;;;;;;;;;;;;;-0.35;75.51;103104.86;106432;1271;97888;-66
2023/12/16 06:37:08;;;;;;;;;;;;;;;-0.34;75.77;103107.15;106468;1268;97847;-67
2023/12/16 06:39:37;;;;;;;;;;;;;;;-0.32;75.86;103107.48;106464;1268;111826;-67
2023/12/16 06:42:05;;;;;;;;;;;;;;;-0.29;75.96;103106.41;106478;1268;107738;-67
2023/12/16 06:44:33;;;;;;;;;;;;;;;-0.27;75.84;103104.29;106486;1268;107802;-67
2023/12/16 06:47:01;;;;;;;;;;;;;;;-0.31;75.53;103109.25;106427;1268;97839;-67
2023/12/16 06:49:29;;;;;;;;;;;;;;;-0.35;75.43;103111.38;106496;1269;97717;-66
2023/12/16 06:51:58;;;;;;;;;;;;;;;-0.35;75.57;103115.80;106532;1268;111270;-65
2023/12/16 06:54:26;;;;;;;;;;;;;;;-0.34;75.65;103116.31;106500;1268;108135;-65
2023/12/16 06:56:54;;;;;;;;;;;;;;;-0.33;75.60;103116.84;106467;1268;107397;-65
2023/12/16 06:59:22;;;;;;;;;;;;;;;-0.31;75.95;103122.66;106461;1268;97844;-65
2023/12/16 07:01:50;;;;;;;;;;;;;;;-0.28;75.58;103125.45;106479;1268;97887;-65
2023/12/16 07:04:18;;;;;;;;;;;;;;;-0.25;75.85;103126.50;106525;1268;111694;-65
2023/12/16 07:06:47;;;;;;;;;;;;;;;-0.23;75.65;103126.84;106509;1268;108220;-65
2023/12/16 07:09:15;;;;;;;;;;;;;;;-0.25;75.45;103134.61;106520;1268;108345;-64
2023/12/16 07:11:43;;;;;;;;;;;;;;;-0.27;75.49;103140.44;106480;1268;97922;-64
2023/12/16 07:14:12;;;;;;;;;;;;;;;-0.25;75.42;103147.48;106526;1268;97958;-64
2023/12/16 07:16:40;;;;;;;;;;;;;;;-0.20;75.39;103144.29;106457;1268;111916;-66
2023/12/16 07:19:08;;;;;;;;;;;;;;;-0.17;75.32;103143.56;106478;1268;108580;-69
2023/12/16 07:21:41;;;;;;;;;;;;;;;-0.14;75.09;103146.91;106423;1268;108726;-67
2023/12/16 07:24:09;;;;;;;;;;;;;;;-0.13;75.15;103144.08;106476;1268;97912;-65
2023/12/16 07:26:37;;;;;;;;;;;;;;;-0.11;75.07;103141.06;106529;1268;97740;-64
2023/12/16 07:29:05;;;;;;;;;;;;;;;-0.06;75.02;103148.08;106473;1272;111332;-65
2023/12/16 07:31:33;;;;;;;;;;;;;;;0.03;75.14;103147.68;106466;1268;108008;-64
2023/12/16 07:34:01;;;;;;;;;;;;;;;0.13;75.12;103144.97;106459;1268;107155;-63
2023/12/16 07:36:30;;;;;;;;;;;;;;;0.24;74.97;103145.61;106480;1268;97766;-69
2023/12/16 07:38:58;;;;;;;;;;;;;;;0.37;75.29;103145.16;106483;1268;97987;-65
2023/12/16 07:41:26;;;;;;;;;;;;;;;0.49;74.70;103154.45;106462;1268;111256;-68
2023/12/16 07:43:55;;;;;;;;;;;;;;;0.54;74.21;103157.21;106498;1268;108469;-66
2023/12/16 07:46:24;;;;;;;;;;;;;;;0.61;74.62;103160.34;106349;1268;107931;-66
2023/12/16 07:48:53;;;;;;;;;;;;;;;0.71;74.71;103159.38;106468;1268;97872;-68
2023/12/16 07:51:25;;;;;;;;;;;;;;;0.82;74.57;103160.16;106550;1268;97946;-67
2023/12/16 07:53:53;;;;;;;;;;;;;;;0.89;74.17;103168.57;106503;1268;111746;-67
2023/12/16 07:56:26;;;;;;;;;;;;;;;0.97;74.30;103171.33;106488;1268;108138;-68
2023/12/16 07:58:54;;;;;;;;;;;;;;;1.04;73.87;103174.80;106487;1273;107393;-66
2023/12/16 08:01:22;;;;;;;;;;;;;;;1.08;73.48;103168.04;106436;1268;97841;-64
2023/12/16 08:03:51;;;;;;;;;;;;;;;1.08;73.04;103166.96;106502;1268;97745;-65
2023/12/16 08:06:20;;;;;;;;;;;;;;;1.07;72.67;103172.47;106510;1268;111999;-63
2023/12/16 08:08:48;;;;;;;;;;;;;;;1.04;72.12;103170.89;106518;1268;106902;-63
2023/12/16 08:11:16;;;;;;;;;;;;;;;1.06;72.09;103174.59;106426;1268;107174;-64
2023/12/16 08:13:44;;;;;;;;;;;;;;;1.07;71.42;103176.17;106474;1268;97841;-65
2023/12/16 08:16:13;;;;;;;;;;;;;;;1.06;71.55;103171.06;106428;1268;97742;-66
2023/12/16 08:18:41;;;;;;;;;;;;;;;1.05;71.40;103164.01;106485;1268;111402;-67
2023/12/16 08:21:09;;;;;;;;;;;;;;;1.00;70.88;103162.11;106496;1268;108367;-66
2023/12/16 08:23:37;;;;;;;;;;;;;;;0.96;71.06;103172.40;106416;1268;108346;-66
2023/12/16 08:26:10;;;;;;;;;;;;;;;0.94;71.07;103174.70;106480;1268;97857;-68
2023/12/16 08:28:40;;;;;;;;;;;;;;;0.98;70.56;103174.33;106525;1268;97981;-67
2023/12/16 08:31:08;;;;;;;;;;;;;;;0.92;69.97;103178.60;106471;1268;112357;-66
2023/12/16 08:33:37;;;;;;;;;;;;;;;0.88;70.12;103181.48;106413;1268;108436;-66
2023/12/16 08:36:06;;;;;;;;;;;;;;;0.88;70.22;103180.42;106495;1268;108173;-64
2023/12/16 08:38:38;;;;;;;;;;;;;;;0.86;70.15;103180.61;106524;1268;97902;-66
2023/12/16 08:41:10;;;;;;;;;;;;;;;0.80;69.87;103176.95;106498;1268;98148;-65
2023/12/16 08:43:38;;;;;;;;;;;;;;;0.96;69.84;103174.34;106540;1268;111926;-64
2023/12/16 08:46:06;;;;;;;;;;;;;;;1.28;69.37;103175.96;106497;1268;107643;-66
2023/12/16 08:48:35;;;;;;;;;;;;;;;1.68;68.98;103168.23;106415;1268;108214;-67
2023/12/16 08:51:04;;;;;;;;;;;;;;;2.13;67.58;103169.58;106509;1268;97995;-66
2023/12/16 08:53:32;;;;;;;;;;;;;;;2.41;66.10;103168.30;106491;1268;97865;-68
2023/12/16 08:56:01;;;;;;;;;;;;;;;2.56;65.44;103168.42;106497;1268;110687;-67
2023/12/16 08:58:29;;;;;;;;;;;;;;;2.95;64.37;103155.50;106521;1268;108676;-66
2023/12/16 09:00:58;;;;;;;;;;;;;;;3.40;63.74;103155.72;106454;1268;107582;-67
2023/12/16 09:03:27;;;;;;;;;;;;;;;3.87;63.66;103149.07;106491;1272;98016;-66
2023/12/16 09:05:55;;;;;;;;;;;;;;;4.26;62.19;103146.74;106561;1268;97824;-67
2023/12/16 09:08:24;;;;;;;;;;;;;;;4.67;61.27;103145.75;106497;1268;111778;-66
2023/12/16 09:10:52;;;;;;;;;;;;;;;5.16;61.37;103141.79;106506;1272;107904;-65
2023/12/16 09:13:20;;;;;;;;;;;;;;;5.76;60.22;103137.94;106489;1273;107443;-65
2023/12/16 09:15:48;;;;;;;;;;;;;;;6.00;59.35;103141.34;106414;1268;97871;-63
2023/12/16 09:18:16;;;;;;;;;;;;;;;6.20;58.66;103138.73;106455;1268;97891;-65
2023/12/16 09:20:45;;;;;;;;;;;;;;;6.36;58.01;103136.08;106487;1268;113537;-66
2023/12/16 09:23:13;;;;;;;;;;;;;;;6.79;56.57;103128.04;106472;1272;108395;-66
2023/12/16 09:25:41;;;;;;;;;;;;;;;7.37;57.19;103124.03;106480;1268;107058;-67
2023/12/16 09:28:09;;;;;;;;;;;;;;;7.78;55.52;103125.13;106440;1268;97888;-68
2023/12/16 09:30:37;;;;;;;;;;;;;;;8.27;55.68;103118.38;106472;1268;97904;-67
2023/12/16 09:33:06;;;;;;;;;;;;;;;8.73;51.91;103119.01;106504;1268;111283;-68
2023/12/16 09:35:34;;;;;;;;;;;;;;;9.21;52.79;103110.80;106467;1268;107852;-69
2023/12/16 09:38:03;;;;;;;;;;;;;;;9.88;52.01;103107.34;106437;1268;108821;-67
2023/12/16 09:40:31;;;;;;;;;;;;;;;10.44;50.25;103105.14;106428;1273;97990;-65
2023/12/16 09:43:09;;;;;;;;;;;;;;;10.76;44.93;103096.00;106514;1268;97846;-65
2023/12/16 09:45:38;;;;;;;;;;;;;;;11.01;45.55;103088.55;106413;1268;111959;-65
2023/12/16 09:48:06;;;;;;;;;;;;;;;11.25;44.15;103089.45;106453;1268;108573;-64
2023/12/16 09:50:35;;;;;;;;;;;;;;;11.33;41.52;103089.00;106500;1269;107751;-65
2023/12/16 09:53:04;;;;;;;;;;;;;;;11.49;43.26;103089.94;106490;1268;98066;-67
2023/12/16 09:55:32;;;;;;;;;;;;;;;12.00;43.08;103093.55;106486;1268;97908;-67
2023/12/16 09:58:02;;;;;;;;;;;;;;;12.07;39.82;103096.39;106463;1268;111872;-66
2023/12/16 10:00:31;;;;;;;;;;;;;;;12.12;40.98;103083.92;106452;1271;109004;-65
2023/12/16 10:03:00;;;;;;;;;;;;;;;12.51;42.31;103087.89;106491;1268;108216;-66
2023/12/16 10:05:31;;;;;;;;;;;;;;;12.93;41.80;103089.52;106501;1268;97984;-65
2023/12/16 10:08:04;;;;;;;;;;;;;;;13.36;40.90;103090.27;106481;1268;97866;-65
2023/12/16 10:10:33;;;;;;;;;;;;;;;13.26;37.96;103086.41;106504;1268;111940;-67
2023/12/16 10:13:03;;;;;;;;;;;;;;;13.39;39.62;103083.95;106498;1268;109362;-67
2023/12/16 10:15:33;;;;;;;;;;;;;;;13.57;37.57;103088.24;105833;1268;937030;-64
2023/12/16 10:18:02;;;;;;;;;;;;;;;13.27;36.65;103090.67;106439;1268;97856;-65
2023/12/16 10:20:30;;;;;;;;;;;;;;;13.33;37.48;103090.66;106492;1273;97733;-65
2023/12/16 10:22:59;;;;;;;;;;;;;;;13.00;38.46;103092.49;106508;1268;111987;-64
2023/12/16 10:25:29;;;;;;;;;;;;;;;12.33;38.96;103097.77;106570;1268;107031;-65
2023/12/16 10:28:00;;;;;;;;;;;;;;;11.71;40.76;103097.51;106414;1273;107852;-69
2023/12/16 10:30:30;;;;;;;;;;;;;;;11.04;40.50;103106.55;106508;1268;97815;-65
2023/12/16 10:33:03;;;;;;;;;;;;;;;10.41;41.43;103109.60;106537;1268;97955;-64
2023/12/16 10:35:32;;;;;;;;;;;;;;;9.69;42.33;103110.58;106543;1268;112210;-64
2023/12/16 10:38:02;;;;;;;;;;;;;;;9.32;42.78;103113.18;106503;1268;108219;-65
2023/12/16 10:40:31;;;;;;;;;;;;;;;8.89;43.66;103116.69;106475;1268;107433;-63
2023/12/16 10:43:00;;;;;;;;;;;;;;;8.41;44.59;103112.43;106508;1268;97862;-67
2023/12/16 10:45:28;;;;;;;;;;;;;;;8.13;45.06;103113.40;106417;1268;97849;-67
2023/12/16 10:47:57;;;;;;;;;;;;;;;7.92;45.42;103115.33;106395;1269;111072;-66
2023/12/16 10:50:26;;;;;;;;;;;;;;;7.67;46.46;103119.70;106475;1268;108371;-66
2023/12/16 10:52:59;;;;;;;;;;;;;;;7.51;47.00;103114.94;106523;1268;108646;-65
2023/12/16 10:55:29;;;;;;;;;;;;;;;7.35;47.37;103115.16;106488;1268;97878;-65
2023/12/16 10:58:14;;;;;;;;;;;;;;;7.17;48.00;103116.89;106523;1268;97904;-65
2023/12/16 11:00:45;;;;;;;;;;;;;;;7.04;48.59;103110.93;106495;1268;111820;-66
2023/12/16 11:03:23;;;;;;;;;;;;;;;7.13;49.09;103106.34;106454;1268;108461;-64
2023/12/16 11:05:59;;;;;;;;;;;;;;;7.05;49.06;103102.16;106461;1268;107359;-64
2023/12/16 11:08:27;;;;;;;;;;;;;;;7.37;48.87;103103.30;106458;1268;97939;-64
2023/12/16 11:10:56;;;;;;;;;;;;;;;8.27;49.55;103094.22;106480;1268;97856;-64
2023/12/16 11:13:25;;;;;;;;;;;;;;;9.39;47.78;103091.50;106445;1268;111881;-63
2023/12/16 11:16:02;;;;;;;;;;;;;;;9.99;45.20;103091.91;106453;1268;108458;-64
2023/12/16 11:18:30;;;;;;;;;;;;;;;10.32;44.31;103089.95;106432;1273;107512;-67
2023/12/16 11:21:04;;;;;;;;;;;;;;;10.03;44.75;103089.92;106480;1268;97832;-67
2023/12/16 11:23:43;;;;;;;;;;;;;;;9.68;44.07;103090.54;106490;1268;97885;-64
2023/12/16 11:26:11;;;;;;;;;;;;;;;9.56;43.96;103098.27;106500;1268;111457;-66
2023/12/16 11:28:40;;;;;;;;;;;;;;;9.25;44.20;103097.35;106492;1268;107814;-65
2023/12/16 11:31:12;;;;;;;;;;;;;;;9.14;45.17;103092.14;106459;1268;108350;-64
2023/12/16 11:33:44;;;;;;;;;;;;;;;9.11;45.23;103093.54;106390;1272;97889;-64
2023/12/16 11:36:19;;;;;;;;;;;;;;;8.79;46.15;103096.70;106507;1268;97897;-64
2023/12/16 11:38:48;;;;;;;;;;;;;;;8.26;46.66;103096.61;106570;1268;110817;-63
2023/12/16 11:41:34;;;;;;;;;;;;;;;7.81;47.79;103092.73;106497;1273;107488;-65
2023/12/16 11:44:02;;;;;;;;;;;;;;;7.58;48.78;103091.27;106453;1268;109271;-63
2023/12/16 11:46:38;;;;;;;;;;;;;;;7.47;49.20;103085.27;106459;1272;97826;-64
2023/12/16 11:49:10;;;;;;;;;;;;;;;7.35;49.42;103083.55;106545;1268;97956;-63
2023/12/16 11:51:39;;;;;;;;;;;;;;;7.28;49.71;103083.85;106467;1268;111037;-66
2023/12/16 11:54:09;;;;;;;;;;;;;;;7.14;50.15;103082.91;106363;1268;107862;-68
2023/12/16 11:56:37;;;;;;;;;;;;;;;7.01;50.62;103080.16;106500;1268;107896;-67
2023/12/16 11:59:07;;;;;;;;;;;;;;;6.92;51.34;103080.16;106495;1268;97846;-64
2023/12/16 12:01:36;;;;;;;;;;;;;;;6.75;51.86;103077.01;106374;1268;97831;-64
2023/12/16 12:04:04;;;;;;;;;;;;;;;6.61;52.23;103072.34;106510;1268;112431;-64
2023/12/16 12:06:33;;;;;;;;;;;;;;;6.41;52.93;103071.75;106571;1273;108396;-63
2023/12/16 12:09:01;;;;;;;;;;;;;;;6.36;53.63;103073.38;106512;1268;107496;-64
2023/12/16 12:11:30;;;;;;;;;;;;;;;6.34;53.42;103073.23;106441;1268;97886;-63
2023/12/16 12:13:58;;;;;;;;;;;;;;;6.26;54.30;103072.81;106521;1268;97745;-63
2023/12/16 12:16:29;;;;;;;;;;;;;;;6.09;54.74;103074.41;106445;1268;110828;-65
2023/12/16 12:18:57;;;;;;;;;;;;;;;6.03;55.26;103073.92;106508;1272;107509;-64
2023/12/16 12:21:26;;;;;;;;;;;;;;;5.93;56.36;103075.23;106465;1269;107347;-64
2023/12/16 12:23:55;;;;;;;;;;;;;;;5.83;56.91;103076.30;106531;1268;97830;-66
2023/12/16 12:26:23;;;;;;;;;;;;;;;5.70;57.55;103075.27;106478;1268;98218;-67
2023/12/16 12:29:02;;;;;;;;;;;;;;;5.51;57.87;103075.11;106494;1268;111609;-64
2023/12/16 12:31:45;;;;;;;;;;;;;;;5.43;58.55;103075.02;106506;1268;107544;-64
2023/12/16 12:34:18;;;;;;;;;;;;;;;5.34;58.80;103071.54;106492;1268;107836;-64